Time;durP1;ratioP1;P1;durP2;ratioP2;P2;SDS_P1;SDS_P2;PMS_P1;PMS_P2;Temp;Humidity;BMP_temperature;BMP_pressure;BME280_temperature;BME280_humidity;BME280_pressure;Samples;Min_cycle;Max_cycle;Signal;HPM_P1;HPM_P2
2023/09/22 00:43:35;;;;;;;;;;;;;;;;;;;;;
2023/09/22 01:20:10;;;;;;;;;;;;;;;;;;;;;
2023/09/22 01:27:02;;;;;;;6.20;3.30;;;;;;;15.63;69.90;98338.06;98160;1275;110606;-92
2023/09/22 02:11:25;;;;;;;12.70;4.50;;;;;;;15.52;70.66;98321.22;91443;1275;107846;-91
2023/09/22 03:10:45;;;;;;;9.90;4.30;;;;;;;15.27;71.25;98294.48;95729;1275;96857;-92
2023/09/22 03:21:26;;;;;;;;;;;;;;;;;;;;;
2023/09/22 03:24:28;;;;;;;10.30;4.20;;;;;;;15.22;71.38;98295.89;105867;1273;108662;-91
2023/09/22 03:31:40;;;;;;;13.10;4.70;;;;;;;15.20;71.48;98292.90;86770;1271;96083;-93
2023/09/22 04:00:27;;;;;;;12.80;5.00;;;;;;;15.12;71.74;98285.84;85883;1276;107820;31
2023/09/22 04:02:55;;;;;;;12.10;4.90;;;;;;;15.11;71.70;98289.34;107002;1275;94322;-78
2023/09/22 04:05:22;;;;;;;11.40;4.80;;;;;;;15.12;71.82;98291.24;107037;1276;95746;-78
2023/09/22 04:07:49;;;;;;;11.20;4.80;;;;;;;15.11;71.92;98292.89;107081;1276;94354;-79
2023/09/22 04:10:16;;;;;;;10.30;4.60;;;;;;;15.11;71.83;98296.85;107092;1274;94348;-77
2023/09/22 04:12:43;;;;;;;14.50;5.10;;;;;;;15.11;71.93;98294.85;107107;1275;94718;-79
2023/09/22 04:15:10;;;;;;;11.20;4.50;;;;;;;15.13;72.01;98297.17;107038;1276;94389;-78
2023/09/22 04:17:38;;;;;;;12.60;5.00;;;;;;;15.16;72.07;98299.04;107151;1275;94534;-79
2023/09/22 04:20:07;;;;;;;14.80;5.30;;;;;;;15.19;72.12;98299.45;107087;1275;95524;-78
2023/09/22 04:22:35;;;;;;;11.80;4.80;;;;;;;15.23;72.09;98298.53;106969;1275;95910;-78
2023/09/22 04:25:11;;;;;;;18.70;5.40;;;;;;;15.26;72.13;98297.63;106830;1275;94379;-78
2023/09/22 04:27:46;;;;;;;11.90;4.60;;;;;;;15.29;72.29;98298.33;107071;1275;94315;-78
2023/09/22 04:30:16;;;;;;;12.30;5.30;;;;;;;15.29;72.16;98295.31;107128;1276;94347;-79
2023/09/22 04:32:44;;;;;;;16.80;5.10;;;;;;;15.31;72.18;98292.60;106795;1276;109460;-78
2023/09/22 04:35:11;;;;;;;14.50;5.30;;;;;;;15.33;72.27;98286.85;106813;1275;94417;-78
2023/09/22 04:37:38;;;;;;;13.00;5.30;;;;;;;15.37;72.30;98285.66;106802;1276;94420;-80
2023/09/22 04:40:19;;;;;;;14.30;5.40;;;;;;;15.38;72.37;98289.29;106953;1276;94637;-79
2023/09/22 04:42:46;;;;;;;13.50;5.70;;;;;;;15.40;72.36;98288.20;106977;1275;94366;-79
2023/09/22 04:45:13;;;;;;;10.60;5.10;;;;;;;15.40;72.41;98285.25;107128;1275;94261;-78
2023/09/22 04:47:39;;;;;;;14.50;5.10;;;;;;;15.43;72.45;98282.67;106943;1274;94770;-79
2023/09/22 04:50:06;;;;;;;12.70;5.50;;;;;;;15.47;72.55;98277.61;107011;1273;94375;-79
2023/09/22 04:52:32;;;;;;;15.60;5.40;;;;;;;15.50;72.54;98277.06;107089;1276;95427;-77
2023/09/22 04:54:59;;;;;;;13.30;5.20;;;;;;;15.54;72.67;98279.55;107033;1275;109535;-77
2023/09/22 04:57:25;;;;;;;11.80;4.90;;;;;;;15.56;72.57;98278.19;107115;1275;94609;-77
2023/09/22 04:59:53;;;;;;;21.90;6.80;;;;;;;15.59;72.55;98274.58;107083;1275;94694;-79
2023/09/22 05:02:19;;;;;;;12.10;5.20;;;;;;;15.60;72.72;98278.73;106962;1275;94582;-78
2023/09/22 05:04:47;;;;;;;14.50;5.20;;;;;;;15.61;72.68;98274.89;107044;1276;94371;-79
2023/09/22 05:07:14;;;;;;;15.60;5.50;;;;;;;15.60;72.67;98277.30;106835;1275;94848;-79
2023/09/22 05:09:42;;;;;;;14.50;4.90;;;;;;;15.61;72.60;98278.95;106969;1274;198047;-79
2023/09/22 05:12:09;;;;;;;11.50;5.10;;;;;;;15.61;72.67;98270.90;107071;1275;94830;-79
2023/09/22 05:14:36;;;;;;;9.70;4.40;;;;;;;15.60;72.69;98275.48;106966;1276;95762;-79
2023/09/22 05:17:04;;;;;;;14.00;5.10;;;;;;;15.58;72.66;98279.06;106996;1276;94747;-79
2023/09/22 05:19:30;;;;;;;10.60;4.90;;;;;;;15.59;72.88;98280.95;107005;1275;94531;-78
2023/09/22 05:21:56;;;;;;;11.40;4.90;;;;;;;15.63;72.90;98283.23;106965;1276;94782;-77
2023/09/22 05:24:23;;;;;;;13.50;5.80;;;;;;;15.70;73.05;98282.91;106699;1276;94944;-77
2023/09/22 05:26:52;;;;;;;15.30;5.90;;;;;;;15.78;73.09;98284.51;107020;1275;94409;-77
2023/09/22 05:29:18;;;;;;;16.20;5.60;;;;;;;15.86;73.05;98282.80;106936;1273;96443;-78
2023/09/22 05:31:45;;;;;;;14.70;5.70;;;;;;;15.93;73.20;98283.98;106988;1275;94822;-77
2023/09/22 05:34:12;;;;;;;14.90;5.30;;;;;;;16.00;73.31;98280.23;106989;1274;94678;-77
2023/09/22 05:36:39;;;;;;;11.60;5.20;;;;;;;16.08;73.35;98277.98;106948;1276;94606;-77
2023/09/22 05:39:05;;;;;;;16.90;6.70;;;;;;;16.14;73.22;98277.79;106990;1275;94698;-77
2023/09/22 05:41:32;;;;;;;11.50;5.20;;;;;;;16.22;73.43;98281.08;107032;1275;94629;-77
2023/09/22 05:43:59;;;;;;;15.40;5.60;;;;;;;16.30;73.51;98281.48;107023;1273;95968;-78
2023/09/22 05:46:25;;;;;;;14.80;5.70;;;;;;;16.38;73.62;98282.98;107004;1275;94632;-77
2023/09/22 05:48:57;;;;;;;12.60;5.20;;;;;;;16.46;73.53;98288.19;106748;1277;109952;-77
2023/09/22 05:51:24;;;;;;;17.20;6.30;;;;;;;16.54;73.55;98291.75;107099;1276;95542;-77
2023/09/22 05:53:51;;;;;;;14.40;6.10;;;;;;;16.60;73.62;98291.12;107073;1274;94320;-77
2023/09/22 05:56:17;;;;;;;12.10;5.30;;;;;;;16.67;73.68;98287.33;107071;1275;94260;-77
2023/09/22 05:58:44;;;;;;;13.30;5.60;;;;;;;16.73;73.88;98282.30;107102;1275;94790;-78
2023/09/22 06:01:13;;;;;;;19.60;6.80;;;;;;;16.82;74.02;98288.70;107161;1275;94688;-77
2023/09/22 06:03:41;;;;;;;13.30;6.30;;;;;;;16.93;74.03;98291.09;107087;1275;94860;-77
2023/09/22 06:06:12;;;;;;;17.00;7.40;;;;;;;17.04;74.19;98293.15;107135;1275;107361;-77
2023/09/22 06:08:41;;;;;;;15.30;7.10;;;;;;;17.17;74.15;98291.70;106873;1275;94364;-77
2023/09/22 06:11:08;;;;;;;19.00;7.50;;;;;;;17.29;74.38;98287.27;107153;1275;94370;-77
2023/09/22 06:13:35;;;;;;;16.30;7.00;;;;;;;17.41;74.33;98287.67;107014;1276;94361;-77
2023/09/22 06:16:02;;;;;;;17.90;7.90;;;;;;;17.53;74.41;98294.78;106870;1276;94477;-77
2023/09/22 06:18:29;;;;;;;21.20;8.90;;;;;;;17.66;74.59;98298.98;106973;1275;94987;-77
2023/09/22 06:20:57;;;;;;;27.50;12.40;;;;;;;17.78;74.52;98298.50;107074;1275;94660;-77
2023/09/22 06:23:24;;;;;;;27.80;14.30;;;;;;;17.91;74.66;98296.58;106779;1277;94801;-77
2023/09/22 06:25:53;;;;;;;29.10;16.60;;;;;;;18.03;74.65;98299.15;107073;1275;94524;-77
2023/09/22 06:28:20;;;;;;;30.10;15.00;;;;;;;18.13;74.72;98300.46;107150;1274;95598;-77
2023/09/22 06:30:48;;;;;;;25.50;12.80;;;;;;;18.24;74.65;98305.88;107093;1275;94814;-77
2023/09/22 06:33:16;;;;;;;24.30;11.80;;;;;;;18.35;74.56;98310.94;107019;1275;94797;-77
2023/09/22 06:35:43;;;;;;;18.60;9.30;;;;;;;18.44;74.80;98318.27;107142;1275;95057;-77
2023/09/22 06:38:10;;;;;;;18.50;8.40;;;;;;;18.52;74.62;98317.71;106973;1275;108227;-77
2023/09/22 06:40:37;;;;;;;19.30;8.90;;;;;;;18.61;74.70;98318.18;107086;1276;95683;-77
2023/09/22 06:43:05;;;;;;;19.70;7.80;;;;;;;18.69;74.74;98317.31;107197;1275;94336;-77
2023/09/22 06:45:51;;;;;;;15.50;7.70;;;;;;;18.77;74.81;98325.14;106968;1275;94365;-77
2023/09/22 06:48:25;;;;;;;21.10;7.50;;;;;;;18.86;74.72;98328.89;107087;1275;94527;-77
2023/09/22 06:50:53;;;;;;;18.00;7.60;;;;;;;18.95;74.87;98329.49;107017;1276;108803;-78
2023/09/22 06:53:21;;;;;;;18.30;7.50;;;;;;;19.03;74.80;98329.80;107153;1275;94539;-78
2023/09/22 06:55:49;;;;;;;17.60;7.60;;;;;;;19.11;74.79;98326.40;107086;1274;107822;-77
2023/09/22 06:58:18;;;;;;;17.90;7.80;;;;;;;19.18;74.78;98330.05;107125;1275;94391;-78
2023/09/22 07:00:44;;;;;;;18.30;7.70;;;;;;;19.25;74.78;98337.25;107144;1276;94587;-78
2023/09/22 07:03:11;;;;;;;14.90;7.10;;;;;;;19.32;74.82;98341.60;107132;1275;94383;-77
2023/09/22 07:05:38;;;;;;;15.50;6.80;;;;;;;19.41;74.74;98340.24;106972;1274;94802;-77
2023/09/22 07:08:04;;;;;;;20.30;8.30;;;;;;;19.50;74.73;98337.05;107128;1275;94319;-77
2023/09/22 07:10:33;;;;;;;16.50;6.90;;;;;;;19.57;74.81;98338.63;107181;1275;94225;-77
2023/09/22 07:13:00;;;;;;;18.20;7.50;;;;;;;19.66;74.85;98339.06;107126;1275;109072;-78
2023/09/22 07:15:26;;;;;;;19.80;7.40;;;;;;;19.75;74.81;98342.95;107150;1274;94824;-77
2023/09/22 07:17:53;;;;;;;17.20;7.20;;;;;;;19.84;74.73;98336.80;107090;1275;94735;-78
2023/09/22 07:20:21;;;;;;;19.60;7.60;;;;;;;19.90;74.70;98342.02;107171;1275;94476;-78
2023/09/22 07:22:48;;;;;;;14.90;6.70;;;;;;;19.99;74.65;98345.09;107120;1276;109419;-77
2023/09/22 07:25:14;;;;;;;19.40;6.60;;;;;;;20.05;74.44;98341.47;107124;1276;94505;-77
2023/09/22 07:27:43;;;;;;;16.70;7.00;;;;;;;20.10;74.60;98345.39;107074;1275;94307;-78
2023/09/22 07:30:10;;;;;;;18.90;7.10;;;;;;;20.14;74.49;98343.23;106832;1276;94695;-78
2023/09/22 07:32:40;;;;;;;15.80;6.70;;;;;;;20.18;74.42;98342.35;107091;1276;94649;-77
2023/09/22 07:35:07;;;;;;;17.80;7.00;;;;;;;20.23;74.50;98341.45;107070;1276;110052;-77
2023/09/22 07:37:34;;;;;;;17.40;7.00;;;;;;;20.26;74.26;98343.96;107173;1275;94643;-78
2023/09/22 07:40:08;;;;;;;18.30;6.70;;;;;;;20.30;74.38;98340.94;106862;1276;94412;-77
2023/09/22 07:42:35;;;;;;;22.30;6.90;;;;;;;20.34;74.39;98340.52;107126;1274;94337;-77
2023/09/22 07:45:02;;;;;;;16.90;7.00;;;;;;;20.41;74.27;98346.06;107091;1274;94456;-78
2023/09/22 07:47:28;;;;;;;17.80;6.60;;;;;;;20.45;74.14;98349.85;107169;1275;94718;-77
2023/09/22 07:49:56;;;;;;;14.50;6.20;;;;;;;20.48;74.20;98354.36;107131;1275;94320;-78
2023/09/22 07:52:23;;;;;;;18.10;6.60;;;;;;;20.50;74.21;98359.13;107205;1275;94802;-77
2023/09/22 07:54:50;;;;;;;16.60;6.40;;;;;;;20.53;74.14;98353.55;107126;1275;94337;-77
2023/09/22 07:57:18;;;;;;;19.20;6.90;;;;;;;20.58;74.07;98351.16;107169;1275;94427;-78
2023/09/22 07:59:44;;;;;;;17.90;6.70;;;;;;;20.64;74.34;98351.02;107023;1275;94569;-77
2023/09/22 08:02:11;;;;;;;18.30;6.90;;;;;;;20.70;74.15;98347.11;107126;1274;95339;-77
2023/09/22 08:04:38;;;;;;;15.50;6.50;;;;;;;20.74;73.90;98351.64;107106;1276;94412;-77
2023/09/22 08:07:06;;;;;;;18.10;7.30;;;;;;;20.77;73.74;98346.37;107169;1275;94365;-78
2023/09/22 08:09:35;;;;;;;15.10;6.00;;;;;;;20.80;73.83;98341.91;107121;1275;95527;-77
2023/09/22 08:12:02;;;;;;;14.40;5.70;;;;;;;20.83;73.58;98349.05;107160;1275;95565;-77
2023/09/22 08:14:28;;;;;;;16.90;7.00;;;;;;;20.86;73.88;98347.48;106925;1273;94551;-78
2023/09/22 08:17:15;;;;;;;14.10;6.20;;;;;;;20.91;73.55;98356.02;107168;1273;94393;-77
2023/09/22 08:20:00;;;;;;;13.60;5.60;;;;;;;20.93;73.67;98360.36;107159;1273;94314;-78
2023/09/22 08:22:27;;;;;;;17.10;6.50;;;;;;;20.97;73.44;98367.49;107186;1273;109951;-78
2023/09/22 08:24:54;;;;;;;18.90;7.50;;;;;;;20.99;73.56;98363.26;107094;1273;94739;-77
2023/09/22 08:27:20;;;;;;;16.60;6.10;;;;;;;21.01;73.47;98363.36;107138;1273;94413;-77
2023/09/22 08:29:50;;;;;;;12.80;5.80;;;;;;;21.04;73.33;98361.01;107136;1276;94654;-78
2023/09/22 08:32:17;;;;;;;16.20;6.50;;;;;;;21.07;73.43;98360.20;107136;1273;94466;-77
2023/09/22 08:34:43;;;;;;;12.80;5.60;;;;;;;21.14;73.43;98352.71;107119;1273;94281;-77
2023/09/22 08:37:10;;;;;;;16.00;6.60;;;;;;;21.18;73.11;98357.66;107151;1273;94570;-78
2023/09/22 08:39:37;;;;;;;14.30;5.90;;;;;;;21.24;73.02;98356.52;107119;1273;94348;-78
2023/09/22 08:42:04;;;;;;;11.80;5.00;;;;;;;21.29;73.11;98358.56;107055;1276;94432;-78
2023/09/22 08:44:30;;;;;;;14.50;6.10;;;;;;;21.32;72.73;98363.02;107174;1273;94671;-77
2023/09/22 08:46:57;;;;;;;13.20;5.20;;;;;;;21.35;72.88;98359.60;107155;1273;95770;-77
2023/09/22 08:49:26;;;;;;;11.30;5.40;;;;;;;21.37;72.93;98360.44;106946;1273;95538;-77
2023/09/22 08:51:53;;;;;;;13.90;5.30;;;;;;;21.41;72.62;98352.70;107093;1273;94302;-78
2023/09/22 08:54:19;;;;;;;14.20;5.20;;;;;;;21.45;72.80;98359.05;106992;1275;94418;-78
2023/09/22 08:56:46;;;;;;;12.30;5.20;;;;;;;21.49;72.06;98355.23;107134;1273;94452;-78
2023/09/22 08:59:12;;;;;;;11.60;4.70;;;;;;;21.53;72.60;98357.48;107151;1273;94280;-77
2023/09/22 09:01:39;;;;;;;14.30;5.00;;;;;;;21.55;72.48;98355.67;107122;1273;94728;-77
2023/09/22 09:04:34;;;;;;;15.10;5.70;;;;;;;21.61;72.52;98353.25;107169;1273;95162;-77
2023/09/22 09:07:04;;;;;;;12.90;4.80;;;;;;;21.66;71.83;98353.25;107175;1273;110610;-77
2023/09/22 09:09:44;;;;;;;16.70;5.00;;;;;;;21.69;72.25;98345.86;107197;1274;95192;-77
2023/09/22 09:12:12;;;;;;;13.60;4.90;;;;;;;21.72;72.09;98338.29;107133;1273;109357;-77
2023/09/22 09:14:43;;;;;;;21.90;6.60;;;;;;;21.75;72.14;98338.13;107126;1273;94700;-77
2023/09/22 09:17:21;;;;;;;15.00;4.90;;;;;;;21.78;72.16;98346.20;107118;1275;94676;-77
2023/09/22 09:19:55;;;;;;;14.00;4.60;;;;;;;21.82;72.16;98345.36;107182;1273;109546;-77
2023/09/22 09:22:37;;;;;;;14.20;5.00;;;;;;;21.84;71.75;98340.92;107176;1273;95651;-78
2023/09/22 09:25:09;;;;;;;11.10;4.60;;;;;;;21.90;71.89;98336.48;107034;1276;107751;-77
2023/09/22 09:27:36;;;;;;;15.80;4.90;;;;;;;21.95;71.79;98334.34;106932;1276;94468;-78
2023/09/22 09:30:13;;;;;;;8.80;4.60;;;;;;;22.03;71.86;98336.55;107156;1273;94330;-77
2023/09/22 09:32:42;;;;;;;16.10;5.10;;;;;;;22.08;71.78;98334.07;107153;1273;109264;-77
2023/09/22 09:35:09;;;;;;;11.00;4.30;;;;;;;22.12;71.60;98337.38;107176;1273;95624;-78
2023/09/22 09:37:36;;;;;;;15.40;4.70;;;;;;;22.19;71.29;98339.19;107167;1273;94426;-77
2023/09/22 09:40:03;;;;;;;17.30;4.70;;;;;;;22.24;70.93;98336.27;107139;1273;94405;-77
2023/09/22 09:42:34;;;;;;;9.00;4.50;;;;;;;22.28;71.12;98325.86;107108;1276;94282;-77
2023/09/22 09:45:03;;;;;;;15.20;5.30;;;;;;;22.31;71.03;98330.88;107132;1273;109953;-77
2023/09/22 09:47:35;;;;;;;16.00;6.00;;;;;;;22.34;71.34;98325.71;107177;1273;95511;-77
2023/09/22 09:50:04;;;;;;;8.60;4.60;;;;;;;22.39;70.61;98319.10;107140;1273;108123;-78
2023/09/22 09:52:43;;;;;;;10.50;5.00;;;;;;;22.43;71.01;98316.10;107126;1273;94617;-78
2023/09/22 09:55:14;;;;;;;19.10;4.80;;;;;;;22.48;70.64;98316.84;107119;1273;94480;-78
2023/09/22 09:57:45;;;;;;;13.10;4.90;;;;;;;22.55;70.72;98318.77;107123;1273;108704;-78
2023/09/22 10:00:19;;;;;;;9.90;4.60;;;;;;;22.59;70.60;98314.10;107159;1274;95511;-78
2023/09/22 10:02:51;;;;;;;11.90;4.60;;;;;;;22.64;70.63;98310.95;107134;1273;107667;-77
2023/09/22 10:05:20;;;;;;;14.70;4.60;;;;;;;22.68;70.37;98314.05;107102;1273;94642;-78
2023/09/22 10:07:50;;;;;;;9.00;4.40;;;;;;;22.71;70.17;98310.05;107098;1276;94373;-77
2023/09/22 10:10:19;;;;;;;13.50;4.40;;;;;;;22.73;70.23;98306.30;107174;1273;109907;-78
2023/09/22 10:12:47;;;;;;;9.00;4.60;;;;;;;22.76;69.81;98306.58;107173;1273;95513;-78
2023/09/22 10:15:14;;;;;;;13.10;4.70;;;;;;;22.77;69.89;98306.13;107067;1273;95716;-78
2023/09/22 10:17:41;;;;;;;11.80;4.20;;;;;;;22.80;69.82;98309.29;107168;1273;94423;-78
2023/09/22 10:20:13;;;;;;;12.30;4.10;;;;;;;22.84;69.97;98308.90;107148;1275;94659;-78
2023/09/22 10:22:40;;;;;;;15.10;4.80;;;;;;;22.88;69.90;98310.57;107127;1273;109898;-78
2023/09/22 10:25:13;;;;;;;13.60;5.10;;;;;;;22.92;69.68;98308.48;107232;1273;94729;-77
2023/09/22 10:27:59;;;;;;;18.40;4.50;;;;;;;22.95;69.53;98304.18;107159;1273;108207;-78
2023/09/22 10:30:42;;;;;;;19.50;4.80;;;;;;;22.96;69.49;98307.36;107169;1273;94704;-77
2023/09/22 10:33:15;;;;;;;12.70;4.00;;;;;;;22.94;68.77;98301.73;107145;1273;94407;-78
2023/09/22 10:35:46;;;;;;;14.00;4.00;;;;;;;22.89;69.11;98306.56;107201;1273;109954;-78
2023/09/22 10:38:14;;;;;;;12.50;4.70;;;;;;;22.88;68.92;98299.86;107201;1273;95476;-78
2023/09/22 10:40:59;;;;;;;9.90;4.10;;;;;;;22.90;68.93;98303.27;107156;1273;107351;-77
2023/09/22 10:43:26;;;;;;;14.80;4.10;;;;;;;22.94;69.12;98302.14;107094;1276;94598;-78
2023/09/22 10:45:53;;;;;;;18.50;4.70;;;;;;;23.00;69.01;98300.67;107089;1273;94731;-77
2023/09/22 10:48:20;;;;;;;17.00;4.50;;;;;;;23.06;68.78;98298.23;107115;1273;110052;-78
2023/09/22 10:50:51;;;;;;;14.10;4.80;;;;;;;23.14;68.23;98303.06;107189;1273;94312;-78
2023/09/22 10:53:18;;;;;;;10.70;3.80;;;;;;;23.21;68.29;98303.77;107155;1273;107681;-78
2023/09/22 10:55:45;;;;;;;14.70;4.40;;;;;;;23.28;68.29;98310.19;107129;1273;94713;-78
2023/09/22 10:58:15;;;;;;;9.90;3.90;;;;;;;23.35;68.47;98312.85;107163;1273;94266;-78
2023/09/22 11:00:56;;;;;;;15.30;4.20;;;;;;;23.40;68.07;98313.34;107110;1273;109859;-78
2023/09/22 11:03:23;;;;;;;14.20;4.20;;;;;;;23.40;67.91;98313.30;106993;1273;95817;-77
2023/09/22 11:06:16;;;;;;;13.80;4.50;;;;;;;23.41;68.15;98321.14;107098;1273;94417;-77
2023/09/22 11:08:53;;;;;;;13.60;4.50;;;;;;;23.40;67.77;98323.02;107099;1273;94440;-77
2023/09/22 11:11:20;;;;;;;10.30;3.80;;;;;;;23.40;67.74;98330.54;107042;1273;94340;-78
2023/09/22 11:13:54;;;;;;;12.00;3.70;;;;;;;23.37;67.08;98331.89;107160;1273;94441;-78
2023/09/22 11:16:27;;;;;;;17.70;3.90;;;;;;;23.33;67.70;98330.30;106967;1273;95383;-77
2023/09/22 11:19:06;;;;;;;13.70;4.80;;;;;;;23.31;67.48;98331.69;107102;1273;107513;-77
2023/09/22 11:21:39;;;;;;;18.70;4.60;;;;;;;23.31;67.54;98332.80;106956;1273;94653;-78
2023/09/22 11:24:08;;;;;;;15.70;4.20;;;;;;;23.38;67.64;98337.81;107171;1273;94452;-78
2023/09/22 11:26:43;;;;;;;14.80;4.20;;;;;;;23.47;67.33;98330.05;107135;1279;109906;-78
2023/09/22 11:29:09;;;;;;;14.30;4.40;;;;;;;23.59;67.30;98328.88;107124;1273;95573;-77
2023/09/22 11:31:50;;;;;;;15.90;4.60;;;;;;;23.73;67.52;98327.74;107168;1273;107655;-77
2023/09/22 11:34:19;;;;;;;14.60;4.40;;;;;;;23.84;67.37;98329.07;107157;1273;94690;-77
2023/09/22 11:36:55;;;;;;;16.50;4.40;;;;;;;23.92;67.30;98328.04;107158;1273;94322;-78
2023/09/22 11:39:30;;;;;;;13.00;4.30;;;;;;;23.99;67.15;98321.05;107195;1273;110309;-78
2023/09/22 11:41:57;;;;;;;11.90;3.80;;;;;;;24.04;67.14;98318.89;107218;1273;95883;-77
2023/09/22 11:44:24;;;;;;;13.00;4.70;;;;;;;24.06;67.10;98316.56;107098;1273;94657;-77
2023/09/22 11:46:52;;;;;;;12.90;4.40;;;;;;;24.06;67.16;98313.31;107019;1273;96405;-77
2023/09/22 11:49:20;;;;;;;13.20;4.70;;;;;;;24.07;66.78;98325.05;107178;1273;94270;-78
2023/09/22 11:51:48;;;;;;;13.00;4.20;;;;;;;24.07;66.53;98316.15;107143;1273;109423;-77
2023/09/22 11:54:16;;;;;;;20.50;5.70;;;;;;;24.10;66.74;98316.67;107096;1274;95491;-77
2023/09/22 11:56:46;;;;;;;13.30;4.60;;;;;;;24.06;66.28;98319.29;107077;1273;107433;-77
2023/09/22 11:59:15;;;;;;;19.40;5.60;;;;;;;24.05;66.35;98319.89;107171;1274;94507;-78
2023/09/22 12:01:42;;;;;;;16.00;5.50;;;;;;;24.04;66.18;98312.79;107113;1273;94363;-77
2023/09/22 12:04:09;;;;;;;12.80;5.20;;;;;;;24.01;66.19;98312.61;107171;1273;94269;-78
2023/09/22 12:06:37;;;;;;;17.00;5.10;;;;;;;23.97;66.05;98308.30;107118;1273;94800;-78
2023/09/22 12:09:04;;;;;;;14.40;4.90;;;;;;;23.94;66.04;98302.88;107133;1274;108056;-77
2023/09/22 12:11:30;;;;;;;14.90;4.50;;;;;;;23.93;66.26;98307.19;107056;1274;94604;-78
2023/09/22 12:13:58;;;;;;;16.10;5.80;;;;;;;23.91;65.80;98307.14;107161;1273;94372;-78
2023/09/22 12:16:25;;;;;;;17.30;5.10;;;;;;;23.86;65.42;98307.46;107104;1273;94328;-78
2023/09/22 12:18:52;;;;;;;12.50;4.80;;;;;;;23.80;65.94;98309.73;107180;1273;94739;-77
2023/09/22 12:21:20;;;;;;;15.90;5.90;;;;;;;23.75;65.82;98307.85;107136;1273;94620;-78
2023/09/22 12:23:46;;;;;;;15.60;5.30;;;;;;;23.73;65.70;98307.03;107107;1273;94351;-77
2023/09/22 12:26:13;;;;;;;18.40;5.50;;;;;;;23.73;65.77;98310.79;107167;1273;94380;-78
2023/09/22 12:28:42;;;;;;;13.60;5.50;;;;;;;23.70;65.68;98316.16;107191;1273;95823;-77
2023/09/22 12:31:09;;;;;;;15.50;4.90;;;;;;;23.69;65.77;98314.19;107119;1273;107788;-78
2023/09/22 12:33:37;;;;;;;12.80;4.30;;;;;;;23.71;65.82;98314.98;107149;1273;94724;-77
2023/09/22 12:36:04;;;;;;;14.20;5.30;;;;;;;23.75;65.80;98316.55;107125;1273;94601;-78
2023/09/22 12:38:31;;;;;;;12.20;5.00;;;;;;;23.79;65.33;98317.98;107175;1273;94759;-77
2023/09/22 12:40:57;;;;;;;13.40;5.40;;;;;;;23.81;65.56;98322.13;107152;1275;94807;-78
2023/09/22 12:43:25;;;;;;;20.50;5.70;;;;;;;23.83;65.40;98318.18;107159;1273;94538;-78
